createdAt,value
2022-11-27T00:01:24.277Z,101623.16
2022-11-27T00:05:32.369Z,101625.70
2022-11-27T00:09:41.570Z,101628.52
2022-11-27T00:13:50.254Z,101628.14
2022-11-27T00:17:58.045Z,101631.08
2022-11-27T00:22:05.369Z,101632.80
2022-11-27T00:26:13.809Z,101630.67
2022-11-27T00:30:22.088Z,101632.42
2022-11-27T00:34:29.875Z,101637.02
2022-11-27T00:38:39.172Z,101636.86
2022-11-27T00:42:47.048Z,101635.60
2022-11-27T00:46:57.612Z,101640.49
2022-11-27T00:51:08.344Z,101642.59
2022-11-27T00:55:15.970Z,101642.20
2022-11-27T00:59:23.706Z,101647.14
2022-11-27T01:03:32.602Z,101635.36
2022-11-27T01:07:40.376Z,101636.96
2022-11-27T01:11:48.337Z,101635.91
2022-11-27T01:16:03.795Z,101640.08
2022-11-27T01:20:13.758Z,101632.08
2022-11-27T01:24:21.786Z,101638.08
2022-11-27T01:28:29.475Z,101643.19
2022-11-27T01:32:37.354Z,101641.98
2022-11-27T01:36:44.692Z,101642.54
2022-11-27T01:40:56.084Z,101634.41
2022-11-27T01:45:04.332Z,101637.73
2022-11-27T01:49:26.081Z,101635.07
2022-11-27T01:53:35.824Z,101639.66
2022-11-27T01:57:47.581Z,101637.75
2022-11-27T02:01:55.671Z,101638.89
2022-11-27T02:06:04.110Z,101632.52
2022-11-27T02:10:14.451Z,101630.52
2022-11-27T02:14:28.160Z,101623.77
2022-11-27T02:18:42.597Z,101628.16
2022-11-27T02:23:03.005Z,101633.13
2022-11-27T02:27:40.106Z,101636.40
2022-11-27T02:31:51.268Z,101635.95
2022-11-27T02:36:03.643Z,101640.71
2022-11-27T02:40:16.620Z,101638.27
2022-11-27T02:44:25.088Z,101633.18
2022-11-27T02:48:35.231Z,101630.70
2022-11-27T02:52:43.513Z,101628.93
2022-11-27T02:56:52.113Z,101625.92
2022-11-27T03:01:01.066Z,101622.38
2022-11-27T03:05:11.141Z,101625.19
2022-11-27T03:09:20.483Z,101625.20
2022-11-27T03:13:29.049Z,101618.33
2022-11-27T03:17:47.132Z,101609.85
2022-11-27T03:21:57.906Z,101612.10
2022-11-27T03:26:05.194Z,101610.97
2022-11-27T03:30:15.130Z,101613.59
2022-11-27T03:34:22.937Z,101608.88
2022-11-27T03:38:31.159Z,101609.40
2022-11-27T03:42:47.552Z,101601.45
2022-11-27T03:47:05.543Z,101593.86
2022-11-27T03:51:19.252Z,101594.20
2022-11-27T03:55:32.334Z,101599.50
2022-11-27T03:59:43.231Z,101596.02
2022-11-27T04:03:50.870Z,101586.52
2022-11-27T04:07:58.872Z,101588.81
2022-11-27T04:12:06.506Z,101590.38
2022-11-27T04:16:14.313Z,101583.64
2022-11-27T04:20:22.037Z,101575.17
2022-11-27T04:24:30.512Z,101572.39
2022-11-27T04:28:39.366Z,101575.45
2022-11-27T04:32:47.494Z,101572.80
2022-11-27T04:36:54.913Z,101567.66
2022-11-27T04:41:02.905Z,101568.14
2022-11-27T04:45:12.386Z,101564.79
2022-11-27T04:49:21.185Z,101558.66
2022-11-27T04:53:29.402Z,101560.06
2022-11-27T04:57:36.896Z,101559.34
2022-11-27T05:01:44.903Z,101551.75
2022-11-27T05:05:59.110Z,101554.09
2022-11-27T05:10:07.932Z,101555.23
2022-11-27T05:14:20.315Z,101559.17
2022-11-27T05:18:28.549Z,101564.63
2022-11-27T05:22:35.868Z,101568.83
2022-11-27T05:26:46.149Z,101573.84
2022-11-27T05:30:53.522Z,101578.00
2022-11-27T05:35:02.496Z,101585.23
2022-11-27T05:39:11.458Z,101582.23
2022-11-27T05:43:21.633Z,101587.10
2022-11-27T05:47:29.028Z,101588.61
2022-11-27T05:51:36.525Z,101586.80
2022-11-27T05:55:43.539Z,101587.13
2022-11-27T05:59:50.957Z,101589.85
2022-11-27T06:03:58.595Z,101590.29
2022-11-27T06:08:06.023Z,101594.71
2022-11-27T06:12:13.640Z,101593.58
2022-11-27T06:16:23.273Z,101601.80
2022-11-27T06:20:31.357Z,101606.19
2022-11-27T06:24:39.092Z,101613.46
2022-11-27T06:28:48.748Z,101608.53
2022-11-27T06:32:57.437Z,101608.34
2022-11-27T06:37:08.058Z,101610.78
2022-11-27T06:41:21.364Z,101607.25
2022-11-27T06:45:29.160Z,101610.58
2022-11-27T06:49:37.708Z,101613.55
2022-11-27T06:53:45.993Z,101608.62
2022-11-27T06:57:54.613Z,101612.15
2022-11-27T07:02:02.330Z,101606.33
2022-11-27T07:06:16.631Z,101604.02
2022-11-27T07:10:24.152Z,101604.94
2022-11-27T07:14:31.763Z,101604.45
2022-11-27T07:18:42.630Z,101610.30
2022-11-27T07:22:50.503Z,101610.67
2022-11-27T07:26:58.125Z,101610.65
2022-11-27T07:31:06.354Z,101606.20
2022-11-27T07:35:13.637Z,101604.61
2022-11-27T07:39:39.438Z,101604.13
2022-11-27T07:43:50.074Z,101599.44
2022-11-27T07:47:58.098Z,101602.98
2022-11-27T07:52:10.543Z,101602.46
2022-11-27T07:56:19.820Z,101597.38
2022-11-27T08:00:27.869Z,101596.66
2022-11-27T08:04:36.012Z,101601.73
2022-11-27T08:08:43.833Z,101602.55
2022-11-27T08:12:51.659Z,101599.48
2022-11-27T08:17:00.300Z,101599.06
2022-11-27T08:21:08.412Z,101594.45
2022-11-27T08:25:18.408Z,101594.66
2022-11-27T08:29:31.185Z,101596.75
2022-11-27T08:33:41.653Z,101597.06
2022-11-27T08:37:49.608Z,101595.77
2022-11-27T08:41:57.300Z,101595.59
2022-11-27T08:46:06.918Z,101594.54
2022-11-27T08:50:14.508Z,101594.59
2022-11-27T08:54:22.847Z,101593.75
2022-11-27T08:58:30.762Z,101597.81
2022-11-27T09:02:40.253Z,101591.67
2022-11-27T09:06:51.043Z,101596.62
2022-11-27T09:11:05.208Z,101601.34
2022-11-27T09:15:13.765Z,101601.51
2022-11-27T09:19:21.790Z,101595.58
2022-11-27T09:23:29.384Z,101593.46
2022-11-27T09:27:37.675Z,101589.01
2022-11-27T09:31:46.026Z,101584.92
2022-11-27T09:35:53.671Z,101581.98
2022-11-27T09:40:01.006Z,101570.51
2022-11-27T09:44:18.087Z,101571.39
2022-11-27T09:48:28.819Z,101563.73
2022-11-27T09:52:40.517Z,101559.58
2022-11-27T09:56:52.089Z,101556.35
2022-11-27T10:01:01.447Z,101551.81
2022-11-27T10:05:17.213Z,101545.70
2022-11-27T10:09:32.011Z,101542.55
2022-11-27T10:13:48.470Z,101539.77
2022-11-27T10:18:02.862Z,101539.13
2022-11-27T10:22:20.924Z,101535.73
2022-11-27T10:26:35.809Z,101527.45
2022-11-27T10:30:52.251Z,101515.54
2022-11-27T10:35:06.196Z,101510.70
2022-11-27T10:39:17.367Z,101507.51
2022-11-27T10:43:26.122Z,101505.25
2022-11-27T10:47:34.462Z,101504.15
2022-11-27T10:51:44.003Z,101497.75
2022-11-27T10:56:07.121Z,101491.80
2022-11-27T11:00:20.840Z,101485.92
2022-11-27T11:04:37.940Z,101485.73
2022-11-27T11:08:46.001Z,101484.95
2022-11-27T11:13:04.971Z,101483.15
2022-11-27T11:17:19.604Z,101482.91
2022-11-27T11:21:30.739Z,101480.01
2022-11-27T11:25:39.953Z,101479.84
2022-11-27T11:29:52.978Z,101475.02
2022-11-27T11:34:04.295Z,101472.40
2022-11-27T11:38:19.454Z,101468.60
2022-11-27T11:42:28.542Z,101465.55
2022-11-27T11:46:40.557Z,101457.80
2022-11-27T11:50:52.664Z,101458.77
2022-11-27T11:55:08.267Z,101457.77
2022-11-27T11:59:22.082Z,101459.64
2022-11-27T12:03:45.405Z,101461.92
2022-11-27T12:08:04.700Z,101461.60
2022-11-27T12:12:20.789Z,101453.90
2022-11-27T12:16:36.572Z,101445.86
2022-11-27T12:20:56.501Z,101444.37
2022-11-27T12:25:11.661Z,101439.81
2022-11-27T12:29:46.069Z,101440.68
2022-11-27T12:34:02.513Z,101443.91
2022-11-27T12:38:30.039Z,101436.36
2022-11-27T12:42:43.526Z,101444.70
2022-11-27T12:46:55.789Z,101446.04
2022-11-27T12:51:08.129Z,101442.33
2022-11-27T12:55:20.282Z,101436.52
2022-11-27T12:59:35.265Z,101436.25
2022-11-27T13:03:50.494Z,101428.70
2022-11-27T13:08:03.937Z,101423.45
2022-11-27T13:12:13.968Z,101421.70
2022-11-27T13:16:25.516Z,101421.70
2022-11-27T13:20:38.256Z,101417.16
2022-11-27T13:24:45.862Z,101411.16
2022-11-27T13:29:02.176Z,101401.20
2022-11-27T13:33:16.557Z,101396.20
2022-11-27T13:37:30.138Z,101396.11
2022-11-27T13:41:41.061Z,101396.20
2022-11-27T13:45:49.010Z,101393.91
2022-11-27T13:50:04.680Z,101388.23
2022-11-27T13:54:18.357Z,101392.27
2022-11-27T13:58:34.362Z,101389.04
2022-11-27T14:02:47.463Z,101383.19
2022-11-27T14:06:59.862Z,101384.30
2022-11-27T14:11:12.000Z,101375.45
2022-11-27T14:15:26.591Z,101378.15
2022-11-27T14:19:37.970Z,101372.05
2022-11-27T14:23:54.084Z,101364.55
2022-11-27T14:28:05.438Z,101360.06
2022-11-27T14:32:15.750Z,101363.16
2022-11-27T14:36:30.459Z,101355.09
2022-11-27T14:40:39.201Z,101345.45
2022-11-27T14:44:47.271Z,101346.55
2022-11-27T14:48:56.601Z,101352.44
2022-11-27T14:53:06.733Z,101355.70
2022-11-27T14:57:18.935Z,101354.39
2022-11-27T15:01:28.057Z,101347.48
2022-11-27T15:05:37.267Z,101339.48
2022-11-27T15:09:49.274Z,101332.33
2022-11-27T15:13:59.573Z,101329.52
2022-11-27T15:18:12.669Z,101335.57
2022-11-27T15:22:23.901Z,101331.84
2022-11-27T15:26:39.823Z,101330.94
2022-11-27T15:30:48.889Z,101335.73
2022-11-27T15:34:58.057Z,101336.48
2022-11-27T15:39:23.510Z,101337.79
2022-11-27T15:43:31.422Z,101337.00
2022-11-27T15:47:40.644Z,101335.98
2022-11-27T15:51:49.235Z,101339.55
2022-11-27T15:55:56.751Z,101334.83
2022-11-27T16:00:07.582Z,101325.27
2022-11-27T16:04:14.814Z,101317.09
2022-11-27T16:08:21.935Z,101315.20
2022-11-27T16:12:29.240Z,101313.85
2022-11-27T16:16:36.913Z,101311.97
2022-11-27T16:20:44.635Z,101309.05
2022-11-27T16:24:52.123Z,101304.91
2022-11-27T16:28:59.764Z,101303.56
2022-11-27T16:33:07.787Z,101305.15
2022-11-27T16:37:18.339Z,101303.04
2022-11-27T16:41:28.882Z,101296.02
2022-11-27T16:45:40.086Z,101294.44
2022-11-27T16:49:47.791Z,101288.08
2022-11-27T16:53:56.954Z,101275.41
2022-11-27T16:58:05.354Z,101267.39
2022-11-27T17:02:14.031Z,101262.75
2022-11-27T17:06:24.259Z,101255.48
2022-11-27T17:10:32.405Z,101251.52
2022-11-27T17:14:42.814Z,101251.61
2022-11-27T17:18:50.257Z,101258.02
2022-11-27T17:22:58.164Z,101251.71
2022-11-27T17:27:05.773Z,101249.27
2022-11-27T17:31:18.830Z,101248.82
2022-11-27T17:35:26.947Z,101248.56
2022-11-27T17:39:34.176Z,101248.28
2022-11-27T17:43:44.530Z,101253.59
2022-11-27T17:47:52.097Z,101251.06
2022-11-27T17:52:04.859Z,101253.95
2022-11-27T17:56:16.389Z,101256.09
2022-11-27T18:00:23.996Z,101253.64
2022-11-27T18:04:32.667Z,101251.00
2022-11-27T18:08:41.131Z,101250.86
2022-11-27T18:12:49.130Z,101255.27
2022-11-27T18:16:56.546Z,101251.39
2022-11-27T18:21:15.313Z,101242.42
2022-11-27T18:25:26.888Z,101239.65
2022-11-27T18:29:34.581Z,101224.36
2022-11-27T18:33:42.768Z,101222.30
2022-11-27T18:37:50.011Z,101220.56
2022-11-27T18:41:58.581Z,101210.10
2022-11-27T18:46:07.558Z,101210.20
2022-11-27T18:50:15.753Z,101202.40
2022-11-27T18:54:23.587Z,101204.21
2022-11-27T18:58:35.237Z,101204.25
2022-11-27T19:02:42.778Z,101197.59
2022-11-27T19:06:50.347Z,101189.73
2022-11-27T19:10:58.863Z,101185.75
2022-11-27T19:15:07.679Z,101184.41
2022-11-27T19:19:54.014Z,101181.65
2022-11-27T19:23:47.556Z,101172.41
2022-11-27T19:27:55.046Z,101171.25
2022-11-27T19:32:03.243Z,101171.13
2022-11-27T19:36:13.596Z,101172.39
2022-11-27T19:40:22.367Z,101178.03
2022-11-27T19:44:29.979Z,101175.09
2022-11-27T19:48:37.244Z,101171.63
2022-11-27T19:52:45.204Z,101170.77
2022-11-27T19:56:53.173Z,101162.92
2022-11-27T20:01:08.276Z,101162.62
2022-11-27T20:05:16.105Z,101162.65
2022-11-27T20:09:23.560Z,101163.20
2022-11-27T20:13:31.542Z,101167.09
2022-11-27T20:17:39.028Z,101166.06
2022-11-27T20:21:46.506Z,101162.05
2022-11-27T20:25:53.960Z,101155.59
2022-11-27T20:30:01.291Z,101150.70
2022-11-27T20:34:09.523Z,101141.25
2022-11-27T20:38:17.045Z,101136.04
2022-11-27T20:42:26.297Z,101130.84
2022-11-27T20:46:34.975Z,101128.07
2022-11-27T20:50:49.750Z,101123.54
2022-11-27T20:54:59.165Z,101117.23
2022-11-27T20:59:08.155Z,101107.27
2022-11-27T21:03:16.149Z,101102.76
2022-11-27T21:07:24.029Z,101101.20
2022-11-27T21:11:32.927Z,101100.86
2022-11-27T21:15:40.835Z,101104.38
2022-11-27T21:19:51.066Z,101103.67
2022-11-27T21:23:58.684Z,101102.43
2022-11-27T21:28:06.419Z,101098.02
2022-11-27T21:32:14.414Z,101093.96
2022-11-27T21:36:23.271Z,101094.99
2022-11-27T21:40:30.825Z,101093.02
2022-11-27T21:44:41.806Z,101087.37
2022-11-27T21:48:51.677Z,101086.28
2022-11-27T21:52:59.317Z,101088.70
2022-11-27T21:57:07.075Z,101087.81
2022-11-27T22:01:17.345Z,101088.68
2022-11-27T22:05:24.958Z,101082.70
2022-11-27T22:09:34.480Z,101081.10
2022-11-27T22:13:42.743Z,101079.67
2022-11-27T22:17:50.600Z,101081.77
2022-11-27T22:21:58.612Z,101073.82
2022-11-27T22:26:07.856Z,101072.39
2022-11-27T22:30:16.232Z,101068.66
2022-11-27T22:34:23.696Z,101058.95
2022-11-27T22:38:31.965Z,101054.92
2022-11-27T22:42:39.479Z,101056.14
2022-11-27T22:46:48.193Z,101061.77
2022-11-27T22:51:00.484Z,101058.05
2022-11-27T22:55:08.965Z,101055.59
2022-11-27T22:59:34.128Z,101044.16
2022-11-27T23:03:43.072Z,101050.96
2022-11-27T23:07:50.871Z,101045.65
2022-11-27T23:11:58.820Z,101044.74
2022-11-27T23:16:07.666Z,101045.58
2022-11-27T23:20:16.724Z,101043.45
2022-11-27T23:24:24.577Z,101035.93
2022-11-27T23:28:32.173Z,101037.53
2022-11-27T23:32:40.739Z,101038.41
2022-11-27T23:36:48.061Z,101042.31
2022-11-27T23:40:55.885Z,101040.92
2022-11-27T23:45:03.832Z,101035.35
2022-11-27T23:49:11.424Z,101032.75
2022-11-27T23:53:19.038Z,101029.79
2022-11-27T23:57:26.425Z,101024.88
